Aérodrome :







RETROUVEZ-NOUS SUR...

 
LOGIN :

S'inscrire | Disclaimer

   EN    FR    IT 

 









Légende :    VFR   VFR Marginal   IFR   IFR Intensif   IFR Très Intensif
Visi : 
Plafond : 
>= 8 km
>= 3000ft
5 à 8 km
1000 à 3000 ft
1500m à 5 km
500 à 1000 ft
800 à 1500m
200 à 500 ft
< 800m
< 200 ft
Symboles :   Orages  Brouillard  Fortes neiges  Fortes précipitations  Vent > 20 kt






- Altitude de l'aérodrome : 2042 ft
- Code IATA : BRM


SVBM - Barquisimeto International

DERNIER METAR :
  • 221400Z 11005KT 9999 FEW016 26/20 Q1014

METARs EXPIRÉS :
  • 221200Z 09002KT 9999 FEW016 22/21 Q1013

TAF TAF SVBM
Valide du 22 à 00h jusqu'au 23 à 00h UTC


212130Z 2200/2300 09010KT 9999 FEW013 SCT070 TX32/2218Z TN22/2308Z
BECMG 2209/2213 11007KT 6000 BR SCT013



MET'MAP, la Météo Aéronautique d'un coup d'oeil ! - Copyright ORBIFLY Décembre 2007 - Disclaimer

ORBIFLY MET'MAP TEAM :

Programmation & Développement : Alexandra Zaïnal
Sur une idée originale de : Baudouin d'Aumeries
Assistance à la programmation : Marc-Olivier Méhu
Soutien technique & logistique : Manuel Goepfert

Contact : metmap@orbifly.com




SOURCES & CREDITS :

   NOAA